Stepney, Connecticut
Current Conditions -  °F | °C
As of 8:15 PM on Monday 26 Jan 2015 (Local Time) from KOXC Reporting Station
Overcast Overcast  
Wind Chill:   Ceiling: 2200
Heat Index: 19°   Visibility: 1.7mi
Dew Point: 10°   Wind: 21mph
Humidity: 68%   Direction: 40°NE
Pressure: 29.8"   Gusts: 28mph
Location:  41.3375°N, 73.2254°W
Report Text: KOXC 270115Z 04018G24KT 1 3/4SM OVC022 M07/M12 A2980 RMK AO1
Loading
Personal Weather Stations






























Interactive Weather Map New forecast layout! Learn more

10-Day Weather Forecast

Advertisements
Track Severe Weather on mobile